sim
Sign-in with your pilot id or email,
or register
Callsign
Passwort

Schedule Details

Flight Number: OEO7691
Departure: Philadelphia International Airport (KPHL) at 20:15
Arrival: Munich Airport (EDDM) at 04:20

Weather Information
Getting current METAR information for KPHL 241054Z 00000KT 10SM OVC270 16/12 A2998 RMK AO2 SLP150 T01610122
Getting current METAR information for EDDM 241050Z 27005KT 220V300 9999 FEW026 20/13 Q1010 NOSIG

Schedule Frequency

Route Map